Time;durP1;ratioP1;P1;durP2;ratioP2;P2;SDS_P1;SDS_P2;PMS_P1;PMS_P2;Temp;Humidity;BMP_temperature;BMP_pressure;BME280_temperature;BME280_humidity;BME280_pressure;Samples;Min_cycle;Max_cycle;Signal;HPM_P1;HPM_P2
2023/08/12 00:00:11;;;;;;;16.03;10.00;;;;;;;19.96;100.00;101592.53;5035862;28;20041;-85
2023/08/12 00:02:38;;;;;;;19.60;10.10;;;;;;;19.90;100.00;101590.81;5036610;28;20060;-84
2023/08/12 00:05:04;;;;;;;18.42;9.68;;;;;;;19.85;100.00;101592.69;5035862;28;20037;-84
2023/08/12 00:07:30;;;;;;;20.23;10.48;;;;;;;19.88;100.00;101595.75;5035452;28;20092;-85
2023/08/12 00:09:56;;;;;;;18.10;10.67;;;;;;;19.83;100.00;101597.59;5018752;28;20072;-86
2023/08/12 00:12:21;;;;;;;18.33;10.00;;;;;;;19.81;100.00;101597.88;5035216;28;20032;-85
2023/08/12 00:14:47;;;;;;;21.10;10.33;;;;;;;19.83;100.00;101597.59;5035054;28;20026;-85
2023/08/12 00:17:12;;;;;;;19.37;11.30;;;;;;;19.88;100.00;101581.97;5034996;28;20040;-85
2023/08/12 00:19:38;;;;;;;20.67;10.82;;;;;;;19.87;100.00;101585.84;5002120;28;20034;-85
2023/08/12 00:22:04;;;;;;;20.20;11.00;;;;;;;19.85;100.00;101577.00;5035852;28;20065;-85
2023/08/12 00:24:30;;;;;;;16.58;10.32;;;;;;;19.93;100.00;101575.69;5036692;28;20033;-84
2023/08/12 00:26:55;;;;;;;21.20;11.73;;;;;;;19.93;100.00;101570.16;5035766;28;20037;-84
2023/08/12 00:29:21;;;;;;;23.07;11.77;;;;;;;19.89;100.00;101564.38;5033643;28;20029;-84
2023/08/12 00:31:46;;;;;;;20.23;11.90;;;;;;;19.89;100.00;101569.06;5034714;28;20021;-84
2023/08/12 00:34:12;;;;;;;20.83;12.23;;;;;;;19.87;100.00;101562.97;5034611;28;20112;-84
2023/08/12 00:36:37;;;;;;;24.27;11.53;;;;;;;19.85;100.00;101559.66;5018171;28;20036;-84
2023/08/12 00:39:03;;;;;;;20.35;11.98;;;;;;;19.84;100.00;101561.53;5034775;28;20108;-84
2023/08/12 00:41:29;;;;;;;18.23;11.57;;;;;;;19.89;100.00;101564.38;5035932;28;20029;-85
2023/08/12 00:43:55;;;;;;;21.10;11.80;;;;;;;19.92;100.00;101554.75;5035639;28;20044;-85
2023/08/12 00:46:22;;;;;;;18.95;12.35;;;;;;;19.90;100.00;101555.03;5034547;28;20037;-85
2023/08/12 00:48:48;;;;;;;18.23;11.75;;;;;;;19.90;100.00;101554.16;5035774;28;20036;-85
2023/08/12 00:51:18;;;;;;;21.63;12.73;;;;;;;19.92;100.00;101547.31;5034396;28;20025;-85
2023/08/12 00:53:46;;;;;;;18.50;11.63;;;;;;;19.89;100.00;101550.59;5018192;28;20037;-85
2023/08/12 00:56:11;;;;;;;22.92;12.93;;;;;;;19.82;100.00;101538.97;5034411;28;20048;-85
2023/08/12 00:58:37;;;;;;;22.83;13.23;;;;;;;19.84;100.00;101541.44;5034174;28;20029;-85
2023/08/12 01:01:03;;;;;;;18.47;12.03;;;;;;;19.84;100.00;101539.53;5033990;28;20478;-85
2023/08/12 01:03:30;;;;;;;21.23;12.85;;;;;;;19.84;100.00;101533.19;5001570;28;20033;-84
2023/08/12 01:05:55;;;;;;;22.33;13.20;;;;;;;19.85;100.00;101535.69;5034031;28;20040;-85
2023/08/12 01:08:21;;;;;;;21.13;12.27;;;;;;;19.79;100.00;101531.22;5034230;28;20033;-85
2023/08/12 01:10:56;;;;;;;27.10;12.75;;;;;;;19.84;100.00;101535.94;5034214;28;20485;-85
2023/08/12 01:13:33;;;;;;;21.67;13.10;;;;;;;19.80;100.00;101536.47;5033814;28;20042;-85
2023/08/12 01:16:03;;;;;;;16.63;12.10;;;;;;;19.78;100.00;101529.56;5034283;28;20033;-85
2023/08/12 01:18:28;;;;;;;24.33;13.17;;;;;;;19.78;100.00;101524.91;5034847;28;20025;-85
2023/08/12 01:20:55;;;;;;;23.23;13.45;;;;;;;19.79;100.00;101517.47;5017462;28;20427;-85
2023/08/12 01:23:20;;;;;;;22.33;12.48;;;;;;;19.80;100.00;101514.44;5001251;28;20039;-85
2023/08/12 01:25:46;;;;;;;20.20;12.67;;;;;;;19.80;100.00;101508.13;5000950;28;20029;-84
2023/08/12 01:28:14;;;;;;;18.63;11.97;;;;;;;19.77;100.00;101506.69;5017484;28;20034;-85
2023/08/12 01:30:53;;;;;;;23.23;12.43;;;;;;;19.83;100.00;101504.00;5033559;28;20478;-85
2023/08/12 01:33:31;;;;;;;19.02;11.50;;;;;;;19.80;100.00;101506.19;5033974;28;20458;-84
2023/08/12 01:36:13;;;;;;;19.17;11.52;;;;;;;19.80;100.00;101500.69;5033900;28;20377;-85
2023/08/12 01:38:39;;;;;;;21.30;10.33;;;;;;;19.78;100.00;101497.38;5033697;28;20033;-85
2023/08/12 01:41:09;;;;;;;24.20;10.85;;;;;;;19.77;100.00;101501.16;5033431;28;20034;-85
2023/08/12 01:43:34;;;;;;;19.40;11.23;;;;;;;19.79;100.00;101501.75;5033129;28;20509;-85
2023/08/12 01:46:00;;;;;;;18.03;11.40;;;;;;;19.83;100.00;101501.22;5016961;28;20034;-85
2023/08/12 01:48:26;;;;;;;18.67;10.77;;;;;;;19.82;100.00;101491.34;5016818;28;20041;-84
2023/08/12 01:50:51;;;;;;;17.73;10.70;;;;;;;19.83;100.00;101490.22;5033100;28;20033;-85
2023/08/12 01:53:17;;;;;;;19.13;10.17;;;;;;;19.82;100.00;101489.41;5033266;28;20041;-85
2023/08/12 01:55:44;;;;;;;16.13;10.13;;;;;;;19.85;100.00;101490.81;5016344;28;20698;-85
2023/08/12 01:58:09;;;;;;;16.55;9.82;;;;;;;19.85;100.00;101490.81;5033277;28;20073;-85
2023/08/12 02:00:34;;;;;;;16.50;9.83;;;;;;;19.87;100.00;101485.84;5033748;28;20056;-85
2023/08/12 02:03:00;;;;;;;17.07;9.50;;;;;;;19.84;100.00;101487.22;5016631;28;20037;-85
2023/08/12 02:05:25;;;;;;;18.17;10.40;;;;;;;19.84;100.00;101475.38;5000498;28;20036;-84
2023/08/12 02:07:51;;;;;;;19.60;9.02;;;;;;;19.87;100.00;101477.59;5034201;28;20022;-85
2023/08/12 02:10:16;;;;;;;17.90;9.60;;;;;;;19.86;100.00;101479.53;5016452;28;20421;-85
2023/08/12 02:12:42;;;;;;;16.37;9.03;;;;;;;19.87;100.00;101478.44;5034441;28;20061;-85
2023/08/12 02:15:08;;;;;;;18.67;8.63;;;;;;;19.88;100.00;101471.00;5032470;28;20421;-85
2023/08/12 02:17:33;;;;;;;13.87;8.00;;;;;;;19.89;100.00;101478.19;5032716;28;20055;-85
2023/08/12 02:19:58;;;;;;;15.60;8.47;;;;;;;19.91;100.00;101478.75;5000009;28;20045;-84
2023/08/12 02:22:24;;;;;;;13.57;7.43;;;;;;;19.93;100.00;101473.78;5034112;28;20036;-84
2023/08/12 02:24:50;;;;;;;17.57;8.33;;;;;;;19.92;100.00;101472.16;5032516;28;20084;-85
2023/08/12 02:27:15;;;;;;;14.30;8.10;;;;;;;19.88;100.00;101471.81;5016294;28;20033;-85
2023/08/12 02:29:41;;;;;;;14.50;8.35;;;;;;;19.88;100.00;101465.50;5033200;28;20039;-85
2023/08/12 02:32:06;;;;;;;14.07;7.87;;;;;;;19.86;100.00;101460.25;5032995;28;20059;-84
2023/08/12 02:34:31;;;;;;;15.50;8.40;;;;;;;19.84;100.00;101456.09;5015958;28;20034;-85
2023/08/12 02:36:57;;;;;;;17.83;7.97;;;;;;;19.83;100.00;101460.78;5016232;28;20454;-85
2023/08/12 02:39:22;;;;;;;17.27;8.00;;;;;;;19.82;100.00;101458.28;5032903;28;20280;-85
2023/08/12 02:41:48;;;;;;;13.93;7.93;;;;;;;19.80;100.00;101458.56;5015945;28;20489;-84
2023/08/12 02:44:14;;;;;;;20.03;8.37;;;;;;;19.78;100.00;101444.22;5016119;28;20034;-84
2023/08/12 02:46:39;;;;;;;16.02;8.15;;;;;;;19.78;100.00;101444.22;5032442;28;20029;-85
2023/08/12 02:49:07;;;;;;;17.90;8.33;;;;;;;19.80;100.00;101453.06;4999526;28;20030;-85
2023/08/12 02:51:32;;;;;;;15.50;7.68;;;;;;;19.77;100.00;101432.34;5015730;28;20041;-85
2023/08/12 02:53:58;;;;;;;13.57;7.53;;;;;;;19.78;100.00;101435.94;5015584;28;20037;-84
2023/08/12 02:56:24;;;;;;;13.70;7.30;;;;;;;19.74;100.00;101432.88;5015698;28;20103;-85
2023/08/12 02:58:49;;;;;;;16.50;7.53;;;;;;;19.72;100.00;101434.22;5033582;28;20021;-84
2023/08/12 03:01:15;;;;;;;14.47;7.63;;;;;;;19.70;100.00;101440.00;5032128;28;20371;-84
2023/08/12 03:03:41;;;;;;;14.40;7.53;;;;;;;19.69;100.00;101432.81;4999722;28;20057;-84
2023/08/12 03:06:06;;;;;;;16.23;7.20;;;;;;;19.68;100.00;101427.56;5033269;28;20064;-84
2023/08/12 03:08:32;;;;;;;14.60;7.17;;;;;;;19.62;100.00;101421.19;5033459;28;20782;-85
2023/08/12 03:10:59;;;;;;;10.80;6.73;;;;;;;19.49;100.00;101427.97;5015279;28;20492;-85
2023/08/12 03:13:25;;;;;;;14.70;7.47;;;;;;;19.43;100.00;101429.84;5033501;28;20033;-85
2023/08/12 03:15:50;;;;;;;15.38;7.13;;;;;;;19.39;100.00;101425.13;5032266;28;20056;-84
2023/08/12 03:18:16;;;;;;;14.17;6.80;;;;;;;19.37;100.00;101419.03;5032438;28;20029;-85
2023/08/12 03:20:41;;;;;;;12.77;7.00;;;;;;;19.38;100.00;101416.03;5033703;28;20037;-85
2023/08/12 03:23:07;;;;;;;13.90;7.17;;;;;;;19.41;100.00;101409.19;5015664;28;20038;-85
2023/08/12 03:25:32;;;;;;;13.87;7.70;;;;;;;19.42;100.00;101410.84;5016477;28;20137;-84
2023/08/12 03:27:57;;;;;;;12.63;7.22;;;;;;;19.39;100.00;101405.88;5015616;28;20029;-85
2023/08/12 03:30:23;;;;;;;15.23;7.70;;;;;;;19.23;100.00;101413.16;5032558;28;20087;-85
2023/08/12 03:32:48;;;;;;;12.60;7.50;;;;;;;19.09;100.00;101402.56;5015524;28;20033;-84
2023/08/12 03:35:14;;;;;;;15.20;8.50;;;;;;;19.01;100.00;101405.75;5032015;28;20034;-85
2023/08/12 03:37:39;;;;;;;17.52;8.50;;;;;;;18.92;100.00;101391.66;5015574;28;20034;-85
2023/08/12 03:40:06;;;;;;;12.43;8.07;;;;;;;18.88;100.00;101395.16;5031788;28;20389;-84
2023/08/12 03:42:31;;;;;;;15.68;8.88;;;;;;;18.81;100.00;101386.25;5015549;28;20033;-84
2023/08/12 03:44:57;;;;;;;13.87;7.87;;;;;;;18.76;100.00;101385.13;5031766;28;20064;-85
2023/08/12 03:47:24;;;;;;;13.40;8.30;;;;;;;18.76;100.00;101387.03;5031676;28;20021;-84
2023/08/12 03:49:49;;;;;;;19.55;8.38;;;;;;;18.75;100.00;101388.16;5015636;28;20035;-85
2023/08/12 03:52:15;;;;;;;13.63;7.93;;;;;;;18.73;100.00;101384.81;5015429;28;20033;-84
2023/08/12 03:54:40;;;;;;;15.33;7.47;;;;;;;18.73;100.00;101387.56;5031768;28;20394;-85
2023/08/12 03:57:05;;;;;;;17.67;7.80;;;;;;;18.69;100.00;101376.25;5031960;28;20033;-85
2023/08/12 03:59:31;;;;;;;12.90;7.22;;;;;;;18.64;100.00;101370.69;5015366;28;20034;-85
2023/08/12 04:01:57;;;;;;;16.33;7.00;;;;;;;18.64;100.00;101370.69;5031850;28;20033;-84
2023/08/12 04:04:23;;;;;;;12.38;6.50;;;;;;;18.61;100.00;101373.13;5017956;28;20390;-85
2023/08/12 04:06:51;;;;;;;13.00;6.97;;;;;;;18.55;100.00;101377.72;5035282;28;20025;-85
2023/08/12 04:09:17;;;;;;;11.95;7.00;;;;;;;18.58;100.00;101368.97;5002925;28;20042;-85
2023/08/12 04:11:43;;;;;;;12.27;6.78;;;;;;;18.57;100.00;101361.81;5034881;28;20112;-84
2023/08/12 04:14:08;;;;;;;10.80;6.27;;;;;;;18.53;100.00;101358.75;5035127;28;20064;-84
2023/08/12 04:16:33;;;;;;;10.83;6.13;;;;;;;18.52;100.00;101348.03;5018882;28;20041;-85
2023/08/12 04:18:59;;;;;;;15.63;6.30;;;;;;;18.52;100.00;101354.34;5035220;28;20061;-85
2023/08/12 04:21:24;;;;;;;11.30;5.93;;;;;;;18.53;100.00;101363.44;5034878;28;20109;-85
2023/08/12 04:23:50;;;;;;;10.23;5.80;;;;;;;18.57;100.00;101367.28;5036235;28;20500;-84
2023/08/12 04:26:15;;;;;;;13.57;6.17;;;;;;;18.59;100.00;101357.72;5002129;28;20068;-85
2023/08/12 04:28:40;;;;;;;13.87;6.73;;;;;;;18.61;100.00;101362.13;5001944;28;20021;-85
2023/08/12 04:31:08;;;;;;;12.98;7.10;;;;;;;18.63;100.00;101365.44;5018365;28;20076;-85
2023/08/12 04:33:34;;;;;;;16.47;7.87;;;;;;;18.63;100.00;101366.28;5034814;28;20120;-85
2023/08/12 04:35:59;;;;;;;10.90;7.25;;;;;;;18.61;100.00;101371.19;5018184;28;20155;-85
2023/08/12 04:38:25;;;;;;;16.33;7.90;;;;;;;18.58;100.00;101371.72;5034772;28;20397;-85
2023/08/12 04:40:52;;;;;;;17.05;8.73;;;;;;;18.60;100.00;101364.03;5035864;28;20069;-84
2023/08/12 04:43:18;;;;;;;17.83;8.57;;;;;;;18.67;100.00;101350.09;5034544;28;20082;-85
2023/08/12 04:45:47;;;;;;;19.35;9.73;;;;;;;18.70;100.00;101344.91;5034874;28;20029;-85
2023/08/12 04:48:12;;;;;;;22.00;10.17;;;;;;;18.76;100.00;101354.06;5035732;28;20040;-84
2023/08/12 04:50:47;;;;;;;21.75;9.10;;;;;;;18.71;100.00;101354.81;5001768;28;20030;-84
2023/08/12 04:53:12;;;;;;;16.02;8.68;;;;;;;18.66;100.00;101354.78;5017563;28;20393;-84
2023/08/12 04:55:38;;;;;;;20.10;9.20;;;;;;;18.63;100.00;101352.56;5036262;28;20054;-86
2023/08/12 04:58:04;;;;;;;19.87;8.63;;;;;;;18.58;100.00;101350.56;5034462;28;20034;-85
2023/08/12 05:00:30;;;;;;;16.48;8.57;;;;;;;18.66;100.00;101334.69;5034513;28;20026;-84
2023/08/12 05:02:55;;;;;;;19.00;8.33;;;;;;;18.58;100.00;101333.25;5034860;28;20040;-85
2023/08/12 05:05:20;;;;;;;17.50;8.73;;;;;;;18.54;100.00;101327.44;5034283;28;20386;-85
2023/08/12 05:07:48;;;;;;;20.07;8.43;;;;;;;18.53;100.00;101335.94;5017580;28;20323;-85
2023/08/12 05:10:16;;;;;;;18.30;7.90;;;;;;;18.56;100.00;101340.94;5034079;28;20025;-84
2023/08/12 05:12:44;;;;;;;17.67;8.67;;;;;;;18.46;100.00;101333.38;5035015;28;20041;-85
2023/08/12 05:15:13;;;;;;;19.90;9.23;;;;;;;18.44;100.00;101315.50;5018011;28;20395;-85
2023/08/12 05:17:38;;;;;;;20.70;9.10;;;;;;;18.48;100.00;101322.13;5018280;28;20037;-84
2023/08/12 05:20:05;;;;;;;27.67;9.83;;;;;;;18.49;100.00;101327.38;5018112;28;20035;-83
2023/08/12 05:22:30;;;;;;;24.73;9.35;;;;;;;18.46;100.00;101329.81;5017861;28;20029;-84
2023/08/12 05:24:56;;;;;;;15.17;9.83;;;;;;;18.43;100.00;101322.09;5033931;28;20036;-82
2023/08/12 05:27:21;;;;;;;19.90;10.20;;;;;;;18.46;100.00;101308.66;5035022;28;20033;-82
2023/08/12 05:29:46;;;;;;;31.97;10.90;;;;;;;18.51;100.00;101329.84;5001081;28;20662;-81
2023/08/12 05:32:12;;;;;;;19.30;10.40;;;;;;;18.46;100.00;101327.88;5034245;28;20040;-81
2023/08/12 05:34:37;;;;;;;16.83;9.53;;;;;;;18.48;100.00;101322.13;5035182;28;20026;-81
2023/08/12 05:37:03;;;;;;;15.13;9.10;;;;;;;18.52;100.00;101317.78;5033430;28;20168;-80
2023/08/12 05:39:28;;;;;;;16.27;9.03;;;;;;;18.51;100.00;101318.88;5000735;28;20502;-80
2023/08/12 05:41:53;;;;;;;13.40;8.45;;;;;;;18.51;100.00;101318.88;5034718;28;20038;-81
2023/08/12 05:44:19;;;;;;;15.93;8.87;;;;;;;18.54;100.00;101305.47;5033290;28;20037;-81
2023/08/12 05:46:44;;;;;;;11.57;7.93;;;;;;;18.52;100.00;101312.31;5034941;28;20469;-80
2023/08/12 05:49:09;;;;;;;14.13;8.00;;;;;;;18.51;100.00;101316.13;5034216;28;20034;-80
2023/08/12 05:51:35;;;;;;;14.47;7.87;;;;;;;18.50;100.00;101311.72;5016865;28;20124;-80
2023/08/12 05:54:00;;;;;;;13.43;8.13;;;;;;;18.52;100.00;101306.81;5034793;28;20021;-81
2023/08/12 05:56:26;;;;;;;15.98;8.65;;;;;;;18.54;100.00;101310.97;5033970;28;20065;-81
2023/08/12 05:58:51;;;;;;;15.30;7.97;;;;;;;18.54;100.00;101310.09;5017577;28;20033;-81
2023/08/12 06:01:17;;;;;;;15.10;8.07;;;;;;;18.51;100.00;101311.47;5016470;28;20059;-81
2023/08/12 06:03:42;;;;;;;15.13;7.63;;;;;;;18.55;100.00;101311.78;5016668;28;20088;-81
2023/08/12 06:06:08;;;;;;;13.25;7.85;;;;;;;18.58;100.00;101306.59;5016641;28;20025;-80
2023/08/12 06:08:33;;;;;;;12.87;7.33;;;;;;;18.64;100.00;101301.16;5016284;28;20037;-81
2023/08/12 06:10:59;;;;;;;10.73;7.22;;;;;;;18.70;100.00;101303.69;5001129;28;20083;-81
2023/08/12 06:13:24;;;;;;;11.73;7.57;;;;;;;18.74;100.00;101295.78;5033111;28;20030;-81
2023/08/12 06:15:50;;;;;;;12.03;7.80;;;;;;;18.80;100.00;101293.91;5033044;28;20039;-81
2023/08/12 06:18:15;;;;;;;11.83;7.40;;;;;;;18.80;100.00;101291.16;5016724;28;20095;-81
2023/08/12 06:20:40;;;;;;;11.77;7.13;;;;;;;18.78;100.00;101291.41;5016448;28;20032;-81
2023/08/12 06:23:06;;;;;;;10.50;6.63;;;;;;;18.82;100.00;101294.47;5016360;28;20500;-81
2023/08/12 06:25:31;;;;;;;12.97;7.20;;;;;;;18.82;100.00;101287.03;5033311;28;20030;-81
2023/08/12 06:27:58;;;;;;;12.07;7.17;;;;;;;18.83;100.00;101291.47;5032707;28;20168;-81
2023/08/12 06:30:24;;;;;;;9.45;6.43;;;;;;;18.81;100.00;101284.56;5033089;28;20033;-81
2023/08/12 06:32:49;;;;;;;9.53;6.40;;;;;;;18.88;100.00;101276.97;5032921;28;20030;-81
2023/08/12 06:35:15;;;;;;;9.60;6.75;;;;;;;18.89;100.00;101276.69;5016882;28;20034;-81
2023/08/12 06:37:41;;;;;;;10.00;5.87;;;;;;;18.87;100.00;101272.56;5032670;28;20041;-81
2023/08/12 06:40:07;;;;;;;8.20;5.82;;;;;;;18.88;100.00;101274.22;5016250;28;20123;-81
2023/08/12 06:42:33;;;;;;;10.27;5.78;;;;;;;18.89;100.00;101275.88;5032925;28;20033;-81
2023/08/12 06:44:59;;;;;;;7.10;5.47;;;;;;;18.87;100.00;101270.63;5016058;28;20382;-81
2023/08/12 06:47:27;;;;;;;7.38;5.43;;;;;;;18.95;100.00;101276.75;5033668;28;20032;-82
2023/08/12 06:49:52;;;;;;;8.03;5.53;;;;;;;18.99;100.00;101264.16;5033717;28;20112;-81
2023/08/12 06:52:18;;;;;;;6.90;5.50;;;;;;;19.03;100.00;101270.75;5016034;28;20029;-81
2023/08/12 06:54:43;;;;;;;6.97;5.53;;;;;;;19.03;100.00;101271.59;5015560;28;20391;-81
2023/08/12 06:57:09;;;;;;;6.20;5.43;;;;;;;19.02;100.00;101267.19;5032117;28;20045;-81
2023/08/12 06:59:34;;;;;;;6.43;5.70;;;;;;;19.09;100.00;101261.47;5016551;28;20048;-82
2023/08/12 07:01:59;;;;;;;6.60;5.97;;;;;;;19.12;100.00;101260.97;5032818;28;20029;-81
2023/08/12 07:04:25;;;;;;;7.17;6.47;;;;;;;19.11;100.00;101262.84;5033570;28;20030;-82
2023/08/12 07:06:50;;;;;;;7.03;6.20;;;;;;;19.02;100.00;101258.13;5032288;28;20381;-81
2023/08/12 07:09:16;;;;;;;8.20;6.33;;;;;;;19.02;100.00;101261.69;5033158;28;20038;-81
2023/08/12 07:11:41;;;;;;;7.43;6.43;;;;;;;19.01;100.00;101265.53;5033309;28;20268;-81
2023/08/12 07:14:06;;;;;;;7.67;6.77;;;;;;;18.91;100.00;101257.19;5033513;28;20447;-81
2023/08/12 07:16:33;;;;;;;9.17;7.60;;;;;;;18.93;100.00;101266.03;5031825;28;20033;-82
2023/08/12 07:18:58;;;;;;;8.73;7.85;;;;;;;18.92;100.00;101256.09;5033127;28;20386;-81
2023/08/12 07:21:24;;;;;;;9.33;8.43;;;;;;;18.99;100.00;101264.16;5031953;28;20030;-81
2023/08/12 07:23:49;;;;;;;11.83;8.80;;;;;;;18.92;100.00;101258.84;5015957;28;20037;-81
2023/08/12 07:26:14;;;;;;;11.33;9.27;;;;;;;18.98;100.00;101263.31;4999275;28;20114;-80
2023/08/12 07:28:40;;;;;;;12.32;9.82;;;;;;;18.99;100.00;101264.97;5015115;28;20030;-80
2023/08/12 07:31:05;;;;;;;12.13;10.20;;;;;;;18.95;100.00;101263.00;5015465;28;20044;-80
2023/08/12 07:33:31;;;;;;;11.50;9.97;;;;;;;18.97;100.00;101264.41;5032806;28;20033;-81
2023/08/12 07:35:56;;;;;;;9.80;8.80;;;;;;;18.93;100.00;101264.09;5015250;28;20033;-80
2023/08/12 07:38:22;;;;;;;11.60;9.20;;;;;;;18.95;100.00;101265.75;5035182;28;20128;-81
2023/08/12 07:40:49;;;;;;;10.20;8.97;;;;;;;19.02;100.00;101271.88;5036961;28;20272;-81
2023/08/12 07:43:17;;;;;;;9.50;8.23;;;;;;;19.00;100.00;101261.13;5037272;28;20029;-81
2023/08/12 07:45:43;;;;;;;8.50;7.50;;;;;;;19.04;100.00;101266.94;5035465;28;20044;-81
2023/08/12 07:48:08;;;;;;;8.53;7.13;;;;;;;19.04;100.00;101251.25;5019332;28;20120;-80
2023/08/12 07:50:34;;;;;;;8.05;6.63;;;;;;;19.05;100.00;101257.59;5035615;28;20037;-81
2023/08/12 07:53:00;;;;;;;10.27;7.10;;;;;;;19.08;100.00;101257.88;5035807;28;20030;-80
2023/08/12 07:55:25;;;;;;;13.47;7.10;;;;;;;19.14;100.00;101261.50;5019365;28;20107;-81
2023/08/12 07:57:50;;;;;;;11.17;6.87;;;;;;;19.17;100.00;101260.97;5037009;28;20029;-80
2023/08/12 08:00:16;;;;;;;8.30;5.73;;;;;;;19.23;100.00;101264.59;5035408;28;20037;-79
2023/08/12 08:02:41;;;;;;;7.55;5.80;;;;;;;19.38;100.00;101252.88;5018727;28;20371;-82
2023/08/12 08:05:07;;;;;;;8.23;5.67;;;;;;;19.39;100.00;101282.88;5035153;28;20041;-79
2023/08/12 08:07:33;;;;;;;5.83;5.13;;;;;;;19.38;100.00;101274.88;5036736;28;20030;-80
2023/08/12 08:09:58;;;;;;;5.50;4.60;;;;;;;19.33;100.00;101277.63;5036157;28;20042;-80
2023/08/12 08:12:24;;;;;;;5.00;4.50;;;;;;;19.32;100.00;101287.78;5036380;28;20325;-80
2023/08/12 08:14:49;;;;;;;5.67;4.47;;;;;;;19.30;100.00;101278.16;5035485;28;20036;-80
2023/08/12 08:17:14;;;;;;;5.17;4.67;;;;;;;19.27;100.00;101279.50;5002498;28;20129;-81
2023/08/12 08:19:40;;;;;;;5.75;4.88;;;;;;;19.24;100.00;101289.09;5034953;28;20033;-80
2023/08/12 08:22:05;;;;;;;5.33;4.80;;;;;;;19.18;100.00;101287.41;5034730;28;20053;-81
2023/08/12 08:24:31;;;;;;;5.63;5.13;;;;;;;19.22;100.00;101298.69;5035018;28;20086;-81
2023/08/12 08:26:56;;;;;;;6.90;6.20;;;;;;;19.24;100.00;101289.09;5036176;28;20083;-81
2023/08/12 08:29:22;;;;;;;7.10;6.32;;;;;;;19.26;100.00;101286.91;5018334;28;20037;-81
2023/08/12 08:31:48;;;;;;;8.32;6.93;;;;;;;19.39;100.00;101302.13;5036039;28;20030;-83
2023/08/12 08:34:14;;;;;;;11.27;8.33;;;;;;;19.49;100.00;101297.78;5018413;28;20029;-81
2023/08/12 08:36:39;;;;;;;10.55;9.43;;;;;;;19.42;100.00;101298.03;5035123;28;20037;-81
2023/08/12 08:39:07;;;;;;;11.80;10.47;;;;;;;19.54;100.00;101293.16;5018095;28;20055;-81
2023/08/12 08:41:39;;;;;;;12.85;10.35;;;;;;;19.68;100.00;101300.94;5017986;28;20124;-81
2023/08/12 08:44:07;;;;;;;11.45;10.25;;;;;;;19.53;100.00;101299.78;5036175;28;20060;-81
2023/08/12 08:46:33;;;;;;;11.53;10.37;;;;;;;19.46;100.00;101305.50;5034554;28;20025;-81
2023/08/12 08:49:00;;;;;;;14.55;12.95;;;;;;;19.51;100.00;101303.88;5000507;28;20041;-81
2023/08/12 08:51:27;;;;;;;15.07;12.50;;;;;;;19.45;100.00;101323.09;5017919;28;20070;-81
2023/08/12 08:53:54;;;;;;;15.85;14.25;;;;;;;19.30;100.00;101306.47;5034392;28;20025;-80
2023/08/12 08:56:20;;;;;;;15.32;13.82;;;;;;;19.21;100.00;101314.38;5034232;28;20055;-82
2023/08/12 08:58:46;;;;;;;15.47;13.80;;;;;;;19.20;100.00;101311.91;5035533;28;20389;-82
2023/08/12 09:01:13;;;;;;;15.50;13.85;;;;;;;19.25;100.00;101309.19;5035503;28;20034;-82
2023/08/12 09:03:39;;;;;;;12.65;11.35;;;;;;;19.21;100.00;101302.56;5035703;28;20124;-82
2023/08/12 09:06:05;;;;;;;11.77;10.68;;;;;;;19.17;100.00;101310.50;5034111;28;20041;-82
2023/08/12 09:08:34;;;;;;;9.57;8.77;;;;;;;19.18;100.00;101317.66;5017684;28;20026;-82
2023/08/12 09:11:01;;;;;;;8.05;7.35;;;;;;;19.18;100.00;101325.91;5034784;28;20041;-82
2023/08/12 09:13:28;;;;;;;10.82;8.00;;;;;;;19.29;100.00;101318.56;5035487;28;20102;-82
2023/08/12 09:15:53;;;;;;;9.07;7.70;;;;;;;19.45;100.00;101328.59;5033784;28;20531;-81
2023/08/12 09:18:23;;;;;;;6.32;5.78;;;;;;;19.39;100.00;101332.41;5034374;28;20033;-82
2023/08/12 09:20:49;;;;;;;6.15;5.65;;;;;;;19.36;100.00;101349.44;5033902;28;20040;-82
2023/08/12 09:23:15;;;;;;;7.63;5.80;;;;;;;19.38;100.00;101355.50;5033896;28;20040;-82
2023/08/12 09:25:44;;;;;;;6.80;6.10;;;;;;;19.50;100.00;101357.25;5017660;28;20025;-82
2023/08/12 09:28:10;;;;;;;4.80;4.40;;;;;;;19.42;100.00;101344.81;5017912;28;20029;-82
2023/08/12 09:30:36;;;;;;;7.35;3.60;;;;;;;19.38;100.00;101352.75;5000780;28;20381;-82
2023/08/12 09:33:03;;;;;;;3.35;3.05;;;;;;;19.30;100.00;101364.25;5017225;28;20037;-82
2023/08/12 09:35:40;;;;;;;3.67;3.37;;;;;;;19.24;100.00;101360.63;5017017;28;20029;-83
2023/08/12 09:38:08;;;;;;;3.75;3.22;;;;;;;19.30;100.00;101364.25;5033811;28;20049;-83
2023/08/12 09:40:35;;;;;;;3.40;3.00;;;;;;;19.28;100.00;101370.00;5035104;28;20036;-83
2023/08/12 09:43:01;;;;;;;4.03;3.20;;;;;;;19.19;100.00;101362.50;5033662;28;20116;-86
2023/08/12 09:45:27;;;;;;;3.83;2.92;;;;;;;19.31;100.00;101368.66;5033091;28;20135;-82
2023/08/12 09:47:54;;;;;;;4.50;3.30;;;;;;;19.46;100.00;101374.28;5016979;28;20598;-83
2023/08/12 09:50:23;;;;;;;4.22;3.63;;;;;;;19.54;100.00;101364.72;5034665;28;20166;-82
2023/08/12 09:52:50;;;;;;;4.53;3.10;;;;;;;19.61;100.00;101357.06;5032878;28;20037;-83
2023/08/12 09:55:17;;;;;;;5.10;3.30;;;;;;;19.68;100.00;101361.50;5032868;28;20029;-83
2023/08/12 09:57:44;;;;;;;3.58;3.17;;;;;;;19.77;100.00;101362.69;5034249;28;20030;-83
2023/08/12 10:00:18;;;;;;;5.18;3.33;;;;;;;19.88;100.00;101364.44;5032972;28;20036;-82
2023/08/12 10:02:45;;;;;;;6.63;2.85;;;;;;;20.14;100.00;101373.69;5017949;28;20473;-84
2023/08/12 10:05:12;;;;;;;5.13;3.00;;;;;;;20.23;100.00;101375.94;5034067;28;20036;-83
2023/08/12 10:07:40;;;;;;;6.38;2.85;;;;;;;20.37;100.00;101366.06;5032690;28;20026;-84
2023/08/12 10:10:06;;;;;;;5.85;2.78;;;;;;;20.66;100.00;101368.44;5032920;28;20040;-84
2023/08/12 10:12:33;;;;;;;4.70;2.80;;;;;;;20.83;100.00;101370.94;5032735;28;20026;-84
2023/08/12 10:15:03;;;;;;;5.97;2.17;;;;;;;20.89;100.00;101377.31;5033371;28;20469;-84
2023/08/12 10:17:28;;;;;;;4.50;2.73;;;;;;;20.82;100.00;101364.63;5034135;28;20072;-84
2023/08/12 10:19:58;;;;;;;3.38;1.92;;;;;;;21.01;100.00;101366.88;5016363;28;20064;-84
2023/08/12 10:22:34;;;;;;;6.67;1.77;;;;;;;21.11;100.00;101368.81;5032751;28;20041;-84
2023/08/12 10:25:02;;;;;;;6.05;2.08;;;;;;;21.01;100.00;101375.16;5032606;28;20120;-84
2023/08/12 10:27:28;;;;;;;5.18;2.15;;;;;;;20.99;100.00;101377.34;5032192;28;20029;-84
2023/08/12 10:29:56;;;;;;;6.35;2.20;;;;;;;21.07;100.00;101365.78;5032250;28;20440;-85
2023/08/12 10:32:24;;;;;;;4.68;1.67;;;;;;;21.56;100.00;101350.66;5016402;28;20048;-84
2023/08/12 10:34:59;;;;;;;7.17;1.47;;;;;;;21.96;100.00;101348.91;5033178;28;20029;-84
2023/08/12 10:37:31;;;;;;;6.68;1.60;;;;;;;22.50;100.00;101363.13;5032074;28;20083;-85
2023/08/12 10:39:59;;;;;;;4.13;1.48;;;;;;;22.68;100.00;101351.44;5032639;28;20041;-85
2023/08/12 10:42:46;;;;;;;2.55;1.30;;;;;;;22.78;100.00;101361.63;5032077;28;20033;-85
2023/08/12 10:45:15;;;;;;;6.32;1.55;;;;;;;22.65;100.00;101362.22;5032735;28;20116;-84
2023/08/12 10:48:06;;;;;;;4.10;1.40;;;;;;;22.49;100.00;101361.50;5031911;28;20033;-86
2023/08/12 10:50:32;;;;;;;4.30;1.73;;;;;;;22.54;100.00;101376.13;5032141;28;20041;-85
2023/08/12 10:53:31;;;;;;;4.23;1.70;;;;;;;22.60;100.00;101374.97;5015862;28;20044;-85
2023/08/12 10:56:03;;;;;;;5.33;1.67;;;;;;;22.78;100.00;101369.91;5032390;28;20295;-85
2023/08/12 10:58:44;;;;;;;3.63;1.90;;;;;;;23.03;97.61;101357.84;5032380;28;20128;-85
2023/08/12 11:01:23;;;;;;;3.97;1.52;;;;;;;22.91;97.70;101373.97;5032612;28;20037;-86
2023/08/12 11:03:49;;;;;;;5.93;1.95;;;;;;;22.95;95.59;101372.28;5033410;28;20029;-85
2023/08/12 11:06:14;;;;;;;5.47;2.10;;;;;;;23.10;91.84;101380.53;5015912;28;20034;-85